Time;durP1;ratioP1;P1;durP2;ratioP2;P2;SDS_P1;SDS_P2;PMS_P1;PMS_P2;Temp;Humidity;BMP_temperature;BMP_pressure;BME280_temperature;BME280_humidity;BME280_pressure;Samples;Min_cycle;Max_cycle;Signal;HPM_P1;HPM_P2
2024/01/24 00:00:43;;;;;;;3.75;3.30;;;;;;;;;;6149969;23;20079;-89
2024/01/24 00:03:21;;;;;;;;;;;;;;;;;;;;;
2024/01/24 00:05:56;;;;;;;4.53;2.88;;;;;;;;;;6166206;23;20020;-89
2024/01/24 00:08:55;;;;;;;;;;;;;;;;;;;;;
2024/01/24 00:11:57;;;;;;;5.80;2.97;;;;;;;;;;6168867;23;20448;-89
2024/01/24 00:14:26;;;;;;;5.90;3.58;;;;;;;;;;6135635;23;20341;-89
2024/01/24 00:16:53;;;;;;;6.47;3.45;;;;;;;;;;6119022;23;20091;-90
2024/01/24 00:19:19;;;;;;;2.80;2.60;;;;;;;;;;6145078;23;20021;-90
2024/01/24 00:21:45;;;;;;;3.83;2.40;;;;;;;;;;6117848;23;20009;-89
2024/01/24 00:24:14;;;;;;;3.45;2.75;;;;;;;;;;6123160;23;20044;-88
2024/01/24 00:26:40;;;;;;;5.40;2.60;;;;;;;;;;6145135;23;20426;-89
2024/01/24 00:29:09;;;;;;;4.97;2.47;;;;;;;;;;6149290;23;20036;-89
2024/01/24 00:31:38;;;;;;;7.13;2.55;;;;;;;;;;6122298;23;20032;-89
2024/01/24 00:34:04;;;;;;;2.63;2.25;;;;;;;;;;6126805;23;20017;-88
2024/01/24 00:36:30;;;;;;;3.20;2.30;;;;;;;;;;6148166;23;20366;-88
2024/01/24 00:38:59;;;;;;;3.00;2.22;;;;;;;;;;6170284;23;20450;-89
2024/01/24 00:41:34;;;;;;;5.22;2.40;;;;;;;;;;6148646;23;20047;-88
2024/01/24 00:44:00;;;;;;;5.95;3.33;;;;;;;;;;6145633;23;20024;-88
2024/01/24 00:46:26;;;;;;;4.07;2.35;;;;;;;;;;6170854;23;20099;-89
2024/01/24 00:48:52;;;;;;;4.25;2.50;;;;;;;;;;6119837;23;20032;-89
2024/01/24 00:51:18;;;;;;;5.85;2.55;;;;;;;;;;6145884;23;20017;-88
2024/01/24 00:53:44;;;;;;;5.45;2.00;;;;;;;;;;6145934;23;20118;-89
2024/01/24 00:56:13;;;;;;;5.13;2.30;;;;;;;;;;6147282;23;20013;-89
2024/01/24 00:58:41;;;;;;;2.30;1.85;;;;;;;;;;6122345;23;20066;-89
2024/01/24 01:01:07;;;;;;;5.28;2.13;;;;;;;;;;6170419;23;20072;-89
2024/01/24 01:03:33;;;;;;;3.20;1.80;;;;;;;;;;6124241;23;20027;-89
2024/01/24 01:06:04;;;;;;;5.80;2.00;;;;;;;;;;6125353;23;20024;-89
2024/01/24 01:08:30;;;;;;;4.40;2.13;;;;;;;;;;6124565;23;20029;-89
2024/01/24 01:10:56;;;;;;;3.00;1.90;;;;;;;;;;6120707;23;20043;-89
2024/01/24 01:13:22;;;;;;;2.33;1.60;;;;;;;;;;6123440;23;20051;-89
2024/01/24 01:15:48;;;;;;;2.55;1.75;;;;;;;;;;6145546;23;20024;-89
2024/01/24 01:18:17;;;;;;;5.28;1.85;;;;;;;;;;6149422;23;20076;-88
2024/01/24 01:20:43;;;;;;;1.65;1.55;;;;;;;;;;6144737;23;20091;-88
2024/01/24 01:23:12;;;;;;;2.33;1.70;;;;;;;;;;6148876;23;20036;-89
2024/01/24 01:25:38;;;;;;;6.10;1.77;;;;;;;;;;6120069;23;20183;-89
2024/01/24 01:28:04;;;;;;;4.85;1.63;;;;;;;;;;6123934;23;20388;-88
2024/01/24 01:30:30;;;;;;;2.25;1.15;;;;;;;;;;6148964;23;20096;-88
2024/01/24 01:32:56;;;;;;;3.72;1.75;;;;;;;;;;6147547;23;20021;-89
2024/01/24 01:35:22;;;;;;;2.65;1.23;;;;;;;;;;6124427;23;20172;-88
2024/01/24 01:37:48;;;;;;;2.85;1.08;;;;;;;;;;6147183;23;20017;-88
2024/01/24 01:40:14;;;;;;;2.58;1.27;;;;;;;;;;6148871;23;20013;-88
2024/01/24 01:42:44;;;;;;;2.65;1.05;;;;;;;;;;6120437;23;20117;-88
2024/01/24 01:45:10;;;;;;;1.10;1.00;;;;;;;;;;6123973;23;20017;-88
2024/01/24 01:47:36;;;;;;;2.88;1.20;;;;;;;;;;6121750;23;20025;-89
2024/01/24 01:50:04;;;;;;;3.08;1.27;;;;;;;;;;6124857;23;20025;-89
2024/01/24 01:52:31;;;;;;;2.38;1.05;;;;;;;;;;6122548;23;20052;-89
2024/01/24 01:54:57;;;;;;;2.03;1.65;;;;;;;;;;6145041;23;20443;-89
2024/01/24 01:57:25;;;;;;;1.27;0.93;;;;;;;;;;6122505;23;20016;-89
2024/01/24 01:59:51;;;;;;;2.15;1.02;;;;;;;;;;6120232;23;20017;-88
2024/01/24 02:02:18;;;;;;;2.47;1.00;;;;;;;;;;6122365;23;20053;-89
2024/01/24 02:04:53;;;;;;;1.00;0.90;;;;;;;;;;6124905;23;20382;-89
2024/01/24 02:07:25;;;;;;;2.60;0.90;;;;;;;;;;6133401;23;20021;-91
2024/01/24 02:09:51;;;;;;;2.03;0.88;;;;;;;;;;6125161;23;20353;-90
2024/01/24 02:12:17;;;;;;;1.27;1.10;;;;;;;;;;6123966;23;20025;-89
2024/01/24 02:14:46;;;;;;;1.08;0.90;;;;;;;;;;6121311;23;20540;-89
2024/01/24 02:17:12;;;;;;;3.53;1.10;;;;;;;;;;6123226;23;20449;-91
2024/01/24 02:19:40;;;;;;;1.63;1.08;;;;;;;;;;6123204;23;20453;-90
2024/01/24 02:22:07;;;;;;;2.83;1.02;;;;;;;;;;6130354;23;20023;-90
2024/01/24 02:24:39;;;;;;;2.53;0.88;;;;;;;;;;6154402;23;20032;-89
2024/01/24 02:27:10;;;;;;;0.93;0.82;;;;;;;;;;6125453;23;20056;-89
2024/01/24 02:29:43;;;;;;;2.45;0.82;;;;;;;;;;6149719;23;20319;-90
2024/01/24 02:32:10;;;;;;;1.58;0.90;;;;;;;;;;6125167;23;20328;-90
2024/01/24 02:34:38;;;;;;;4.35;1.00;;;;;;;;;;6124596;23;20490;-89
2024/01/24 02:37:06;;;;;;;1.58;0.75;;;;;;;;;;6152833;23;20035;-89
2024/01/24 02:39:32;;;;;;;3.30;0.70;;;;;;;;;;6126535;23;20013;-90
2024/01/24 02:42:01;;;;;;;3.15;0.77;;;;;;;;;;6126183;23;20017;-90
2024/01/24 02:44:32;;;;;;;1.55;0.90;;;;;;;;;;6125607;23;20017;-91
2024/01/24 02:47:03;;;;;;;3.80;0.63;;;;;;;;;;6126513;23;20017;-90
2024/01/24 02:49:53;;;;;;;3.10;1.20;;;;;;;;;;6164261;23;20017;-90
2024/01/24 02:52:19;;;;;;;8.02;1.35;;;;;;;;;;6130030;23;20028;-90
2024/01/24 02:54:45;;;;;;;6.00;1.02;;;;;;;;;;6129519;23;20014;-91
2024/01/24 02:57:11;;;;;;;4.15;1.10;;;;;;;;;;6129141;23;20068;-90
2024/01/24 02:59:40;;;;;;;4.18;0.80;;;;;;;;;;6180503;23;20048;-90
2024/01/24 03:02:06;;;;;;;2.10;1.13;;;;;;;;;;6155305;23;20017;-90
2024/01/24 03:04:32;;;;;;;2.60;0.95;;;;;;;;;;6132179;23;20025;-90
2024/01/24 03:06:58;;;;;;;4.30;1.52;;;;;;;;;;6152009;23;20013;-90
2024/01/24 03:09:33;;;;;;;7.10;1.40;;;;;;;;;;6134547;23;20021;-90
2024/01/24 03:12:02;;;;;;;7.25;1.00;;;;;;;;;;6130281;23;20067;-90
2024/01/24 03:14:30;;;;;;;7.30;1.27;;;;;;;;;;6133159;23;20023;-90
2024/01/24 03:16:57;;;;;;;5.65;1.67;;;;;;;;;;6127284;23;20020;-90
2024/01/24 03:19:28;;;;;;;5.82;1.20;;;;;;;;;;6155705;23;20017;-89
2024/01/24 03:21:54;;;;;;;7.32;1.70;;;;;;;;;;6153253;23;20416;-90
2024/01/24 03:24:32;;;;;;;3.95;1.55;;;;;;;;;;6134449;23;20017;-90
2024/01/24 03:26:58;;;;;;;5.35;1.70;;;;;;;;;;6131952;23;20056;-90
2024/01/24 03:29:34;;;;;;;9.43;1.50;;;;;;;;;;6132230;23;20077;-90
2024/01/24 03:32:03;;;;;;;9.05;2.75;;;;;;;;;;6136605;23;20017;-89
2024/01/24 03:34:31;;;;;;;12.07;1.43;;;;;;;;;;6130442;23;20017;-90
2024/01/24 03:36:57;;;;;;;8.93;1.70;;;;;;;;;;6125943;23;20063;-89
2024/01/24 03:39:23;;;;;;;15.50;2.05;;;;;;;;;;6125706;23;20024;-90
2024/01/24 03:41:56;;;;;;;11.85;1.98;;;;;;;;;;6146888;23;20524;-90
2024/01/24 03:44:22;;;;;;;5.63;1.45;;;;;;;;;;6126872;23;20021;-90
2024/01/24 03:46:48;;;;;;;12.02;1.90;;;;;;;;;;6146304;23;20025;-90
2024/01/24 03:49:15;;;;;;;6.50;1.60;;;;;;;;;;6126276;23;20020;-89
2024/01/24 03:51:44;;;;;;;10.57;3.50;;;;;;;;;;6125648;23;20103;-90
2024/01/24 03:54:14;;;;;;;8.65;1.73;;;;;;;;;;6151937;23;20017;-88
2024/01/24 03:56:43;;;;;;;15.82;1.95;;;;;;;;;;6122574;23;20096;-89
2024/01/24 03:59:11;;;;;;;10.10;2.00;;;;;;;;;;6126347;23;20021;-89
2024/01/24 04:01:37;;;;;;;8.65;1.90;;;;;;;;;;6146375;23;20017;-90
2024/01/24 04:04:42;;;;;;;;;;;;;;;;;;;;;
2024/01/24 04:07:29;;;;;;;12.15;2.10;;;;;;;;;;6163391;23;20115;-89
2024/01/24 04:10:13;;;;;;;9.05;2.33;;;;;;;;;;6147900;23;20020;-89
2024/01/24 04:13:14;;;;;;;7.70;1.83;;;;;;;;;;6130716;23;20392;-89
2024/01/24 04:15:59;;;;;;;11.52;2.67;;;;;;;;;;6144203;23;20020;-89
2024/01/24 04:18:57;;;;;;;15.07;2.60;;;;;;;;;;6125996;23;20023;-90
2024/01/24 04:22:19;;;;;;;8.45;1.95;;;;;;;;;;6143692;23;20021;-89
2024/01/24 04:25:02;;;;;;;9.30;2.35;;;;;;;;;;6086070;23;20045;-89
2024/01/24 04:28:01;;;;;;;;;;;;;;;;;;;;;
2024/01/24 04:30:45;;;;;;;;;;;;;;;;;;;;;
2024/01/24 04:33:55;;;;;;;;;;;;;;;;;;;;;
2024/01/24 04:40:03;;;;;;;15.75;2.67;;;;;;;;;;6033748;23;20024;-89
2024/01/24 04:43:19;;;;;;;;;;;;;;;;;;;;;
2024/01/24 04:46:03;;;;;;;14.68;2.65;;;;;;;;;;6059531;23;20685;-89
2024/01/24 04:49:04;;;;;;;;;;;;;;;;;;;;;
2024/01/24 04:51:48;;;;;;;9.90;2.35;;;;;;;;;;6054656;23;20076;-90
2024/01/24 04:54:37;;;;;;;11.23;2.63;;;;;;;;;;6034426;23;20075;-89
2024/01/24 04:57:19;;;;;;;14.13;2.22;;;;;;;;;;6110803;23;20017;-89
2024/01/24 05:00:03;;;;;;;12.98;2.53;;;;;;;;;;6123882;23;20013;-89
2024/01/24 05:12:22;;;;;;;16.95;2.90;;;;;;;;;;6143791;23;20491;-89
2024/01/24 05:21:26;;;;;;;17.65;3.53;;;;;;;;;;6151244;23;20056;-90
2024/01/24 05:24:39;;;;;;;21.70;3.38;;;;;;;;;;6144305;23;20023;-90
2024/01/24 05:27:43;;;;;;;18.20;3.17;;;;;;;;;;6124097;23;20618;-90
2024/01/24 05:30:15;;;;;;;22.08;3.67;;;;;;;;;;6146617;23;20029;-90
2024/01/24 05:33:23;;;;;;;18.02;5.32;;;;;;;;;;6126242;23;20092;-90
2024/01/24 05:36:05;;;;;;;;;;;;;;;;;;;;;
2024/01/24 05:38:38;;;;;;;18.40;3.63;;;;;;;;;;6150998;23;20039;-90
2024/01/24 05:41:18;;;;;;;15.18;3.45;;;;;;;;;;6125611;23;20032;-90
2024/01/24 05:43:50;;;;;;;17.63;3.40;;;;;;;;;;6144342;23;20102;-90
2024/01/24 05:49:36;;;;;;;;;;;;;;;;;;;;;
2024/01/24 05:52:15;;;;;;;19.02;3.30;;;;;;;;;;6150645;23;20021;-90
2024/01/24 05:54:41;;;;;;;13.32;3.30;;;;;;;;;;6146493;23;20039;-90
2024/01/24 05:57:07;;;;;;;24.55;4.57;;;;;;;;;;6123704;23;20017;-90
2024/01/24 05:59:33;;;;;;;19.08;5.10;;;;;;;;;;6124430;23;20430;-90
2024/01/24 06:01:59;;;;;;;19.42;4.72;;;;;;;;;;6121378;23;20476;-90
2024/01/24 06:04:25;;;;;;;16.42;3.72;;;;;;;;;;6123851;23;20078;-90
2024/01/24 06:06:54;;;;;;;17.40;3.80;;;;;;;;;;6122392;23;20558;-90
2024/01/24 06:09:20;;;;;;;14.75;3.15;;;;;;;;;;6123907;23;20032;-90
2024/01/24 06:11:48;;;;;;;20.00;3.55;;;;;;;;;;6144629;23;20099;-90
2024/01/24 06:14:17;;;;;;;19.13;3.17;;;;;;;;;;6148448;23;20020;-91
2024/01/24 06:16:43;;;;;;;17.88;4.07;;;;;;;;;;6121721;23;20017;-91
2024/01/24 06:19:12;;;;;;;18.05;4.55;;;;;;;;;;6125182;23;20496;-91
2024/01/24 06:21:38;;;;;;;21.65;4.00;;;;;;;;;;6121689;23;20013;-91
2024/01/24 06:24:07;;;;;;;12.98;2.70;;;;;;;;;;6124434;23;20021;-91
2024/01/24 06:26:38;;;;;;;17.38;3.38;;;;;;;;;;6124856;23;20104;-90
2024/01/24 06:29:07;;;;;;;21.33;3.97;;;;;;;;;;6126758;23;20017;-90
2024/01/24 06:31:35;;;;;;;19.80;3.85;;;;;;;;;;6126360;23;20067;-91
2024/01/24 06:34:08;;;;;;;20.38;4.18;;;;;;;;;;6128316;23;20048;-92
2024/01/24 06:36:34;;;;;;;21.70;3.92;;;;;;;;;;6127720;23;20009;-91
2024/01/24 06:39:09;;;;;;;18.35;4.45;;;;;;;;;;6150683;23;20443;-92
2024/01/24 06:41:38;;;;;;;22.55;3.42;;;;;;;;;;6125036;23;20571;-90
2024/01/24 06:44:07;;;;;;;24.88;4.50;;;;;;;;;;6128328;23;20016;-90
2024/01/24 06:46:35;;;;;;;21.35;4.57;;;;;;;;;;6126864;23;20345;-90
2024/01/24 06:49:01;;;;;;;20.90;3.42;;;;;;;;;;6127543;23;20029;-91
2024/01/24 06:51:30;;;;;;;24.70;3.90;;;;;;;;;;6150801;23;20095;-91
2024/01/24 06:53:56;;;;;;;22.13;3.70;;;;;;;;;;6123463;23;20025;-91
2024/01/24 06:56:22;;;;;;;16.33;3.28;;;;;;;;;;6151414;23;20016;-91
2024/01/24 06:58:48;;;;;;;17.88;4.30;;;;;;;;;;6124917;23;20051;-91
2024/01/24 07:01:19;;;;;;;25.13;4.38;;;;;;;;;;6124936;23;20048;-91
2024/01/24 07:03:45;;;;;;;22.90;4.35;;;;;;;;;;6124684;23;20027;-91
2024/01/24 07:06:12;;;;;;;18.42;3.85;;;;;;;;;;6126163;23;20067;-91
2024/01/24 07:08:41;;;;;;;21.30;4.40;;;;;;;;;;6126104;23;20341;-91
2024/01/24 07:11:10;;;;;;;15.85;3.80;;;;;;;;;;6126691;23;20024;-90
2024/01/24 07:13:37;;;;;;;20.27;3.83;;;;;;;;;;6175272;23;20076;-91
2024/01/24 07:16:04;;;;;;;18.13;4.03;;;;;;;;;;6125623;23;20505;-91
2024/01/24 07:18:33;;;;;;;16.00;3.35;;;;;;;;;;6126902;23;20009;-90
2024/01/24 07:21:00;;;;;;;24.25;3.67;;;;;;;;;;6148919;23;20334;-90
2024/01/24 07:23:26;;;;;;;26.48;4.70;;;;;;;;;;6151560;23;20029;-91
2024/01/24 07:25:52;;;;;;;28.13;6.07;;;;;;;;;;6149156;23;20032;-91
2024/01/24 07:28:18;;;;;;;21.20;3.83;;;;;;;;;;6151284;23;20025;-90
2024/01/24 07:30:52;;;;;;;21.17;5.10;;;;;;;;;;6124530;23;20025;-91
2024/01/24 07:33:18;;;;;;;20.33;3.75;;;;;;;;;;6153271;23;20021;-91
2024/01/24 07:35:44;;;;;;;21.85;3.80;;;;;;;;;;6148551;23;20453;-90
2024/01/24 07:38:10;;;;;;;27.38;4.88;;;;;;;;;;6127683;23;20013;-90
2024/01/24 07:40:39;;;;;;;17.92;3.53;;;;;;;;;;6148924;23;20023;-91
2024/01/24 07:43:08;;;;;;;24.30;4.88;;;;;;;;;;6128825;23;20047;-91
2024/01/24 07:45:37;;;;;;;25.42;5.10;;;;;;;;;;6123917;23;20757;-91
2024/01/24 08:39:12;;;;;;;25.40;3.92;;;;;;;;;;6175666;23;20039;-91
2024/01/24 08:41:41;;;;;;;27.60;5.20;;;;;;;;;;6122718;23;20469;-90
2024/01/24 08:44:08;;;;;;;25.73;4.10;;;;;;;;;;6125571;23;20025;-91
2024/01/24 08:46:39;;;;;;;20.92;3.60;;;;;;;;;;6124099;23;20338;-90
2024/01/24 08:49:05;;;;;;;25.15;3.97;;;;;;;;;;6149328;23;20024;-90
2024/01/24 08:51:34;;;;;;;24.55;4.40;;;;;;;;;;6124626;23;20087;-91
2024/01/24 08:54:00;;;;;;;18.05;3.92;;;;;;;;;;6124141;23;20032;-90
2024/01/24 08:56:26;;;;;;;22.95;4.15;;;;;;;;;;6124228;23;20013;-91
2024/01/24 08:58:55;;;;;;;32.92;4.53;;;;;;;;;;6122350;23;20017;-90
2024/01/24 09:01:21;;;;;;;27.25;5.13;;;;;;;;;;6124322;23;20024;-90
2024/01/24 09:03:53;;;;;;;28.25;5.07;;;;;;;;;;6123460;23;20052;-91
2024/01/24 09:06:21;;;;;;;31.17;5.28;;;;;;;;;;6132672;23;20036;-90
2024/01/24 09:08:53;;;;;;;23.60;5.35;;;;;;;;;;6140224;23;20029;-90
2024/01/24 09:11:20;;;;;;;21.45;4.47;;;;;;;;;;6127821;23;20024;-90
2024/01/24 09:13:51;;;;;;;17.27;4.10;;;;;;;;;;6123847;23;20024;-91
2024/01/24 09:16:24;;;;;;;36.35;4.70;;;;;;;;;;6126785;23;20027;-91
2024/01/24 09:19:00;;;;;;;27.17;5.15;;;;;;;;;;6125896;23;20017;-91
2024/01/24 09:21:26;;;;;;;23.88;4.63;;;;;;;;;;6152130;23;20020;-91
2024/01/24 09:23:54;;;;;;;18.10;3.80;;;;;;;;;;6149354;23;20075;-90
2024/01/24 09:26:21;;;;;;;27.52;3.75;;;;;;;;;;6149430;23;20017;-91
2024/01/24 09:28:47;;;;;;;23.50;4.30;;;;;;;;;;6123839;23;20028;-90
2024/01/24 09:31:19;;;;;;;25.58;5.38;;;;;;;;;;6127143;23;20247;-91
2024/01/24 09:33:48;;;;;;;26.58;4.53;;;;;;;;;;6123502;23;20080;-91
2024/01/24 09:36:16;;;;;;;21.83;4.18;;;;;;;;;;6150075;23;20036;-91
2024/01/24 09:38:45;;;;;;;30.25;4.78;;;;;;;;;;6123487;23;20032;-90
2024/01/24 09:41:17;;;;;;;28.52;3.92;;;;;;;;;;6127047;23;20331;-90
2024/01/24 09:43:54;;;;;;;18.80;4.03;;;;;;;;;;6128249;23;20108;-90
2024/01/24 09:46:20;;;;;;;22.38;5.32;;;;;;;;;;6126978;23;20021;-91
2024/01/24 09:48:50;;;;;;;17.00;4.53;;;;;;;;;;6122467;23;20060;-90
2024/01/24 09:51:19;;;;;;;28.95;4.43;;;;;;;;;;6127251;23;20020;-90
2024/01/24 09:53:50;;;;;;;17.25;4.65;;;;;;;;;;6122894;23;20020;-90
2024/01/24 09:56:17;;;;;;;25.63;5.53;;;;;;;;;;6127463;23;20428;-90
2024/01/24 09:58:43;;;;;;;24.42;4.40;;;;;;;;;;6146852;23;20527;-91
2024/01/24 10:01:13;;;;;;;27.95;5.53;;;;;;;;;;6125816;23;20052;-90
2024/01/24 10:03:39;;;;;;;21.05;4.88;;;;;;;;;;6123525;23;20456;-90
2024/01/24 10:06:10;;;;;;;17.15;4.03;;;;;;;;;;6149652;23;20027;-91
2024/01/24 10:08:38;;;;;;;20.92;3.38;;;;;;;;;;6121741;23;20450;-90
2024/01/24 10:11:05;;;;;;;18.40;4.00;;;;;;;;;;6148899;23;20063;-91
2024/01/24 10:13:39;;;;;;;23.33;3.65;;;;;;;;;;6122965;23;20052;-90
2024/01/24 10:16:07;;;;;;;20.70;4.82;;;;;;;;;;6125623;23;20394;-90
2024/01/24 10:18:41;;;;;;;18.58;4.03;;;;;;;;;;6122300;23;20060;-91
2024/01/24 10:21:10;;;;;;;23.48;4.75;;;;;;;;;;6124609;23;20021;-91
2024/01/24 10:23:45;;;;;;;21.02;3.45;;;;;;;;;;6121405;23;20020;-90
2024/01/24 10:26:16;;;;;;;18.92;3.10;;;;;;;;;;6124028;23;20017;-90
2024/01/24 10:28:43;;;;;;;18.55;3.72;;;;;;;;;;6120203;23;20071;-91
2024/01/24 10:31:19;;;;;;;20.53;3.77;;;;;;;;;;6123056;23;20039;-91
2024/01/24 10:33:50;;;;;;;25.52;3.50;;;;;;;;;;6123617;23;20025;-91
2024/01/24 10:36:24;;;;;;;19.05;3.20;;;;;;;;;;6128114;23;20021;-90
2024/01/24 10:38:50;;;;;;;15.57;3.15;;;;;;;;;;6125823;23;20024;-91
2024/01/24 10:41:22;;;;;;;17.60;3.42;;;;;;;;;;6127560;23;20041;-90
2024/01/24 10:43:56;;;;;;;14.50;3.30;;;;;;;;;;6148647;23;20464;-91
2024/01/24 10:46:36;;;;;;;18.88;4.90;;;;;;;;;;6125788;23;20343;-91
2024/01/24 10:49:15;;;;;;;16.40;3.08;;;;;;;;;;6130095;23;20021;-90
2024/01/24 10:51:43;;;;;;;15.55;2.85;;;;;;;;;;6124573;23;20092;-91
2024/01/24 10:54:25;;;;;;;18.27;3.13;;;;;;;;;;6151530;23;20027;-92
2024/01/24 10:56:53;;;;;;;16.33;3.38;;;;;;;;;;6126005;23;20044;-92
2024/01/24 10:59:29;;;;;;;16.88;3.00;;;;;;;;;;6127374;23;20020;-91
2024/01/24 11:01:58;;;;;;;18.65;2.95;;;;;;;;;;6125712;23;20412;-92
2024/01/24 11:04:49;;;;;;;20.90;3.42;;;;;;;;;;6126739;23;20025;-92
2024/01/24 11:07:16;;;;;;;18.30;3.03;;;;;;;;;;6130780;23;20028;-91
2024/01/24 11:10:10;;;;;;;20.10;3.95;;;;;;;;;;6124604;23;20465;-91
2024/01/24 11:12:48;;;;;;;;;;;;;;;;;;;;;
2024/01/24 11:15:48;;;;;;;;;;;;;;;;;;;;;
2024/01/24 11:19:16;;;;;;;;;;;;;;;;;;;;;
2024/01/24 11:22:07;;;;;;;;;;;;;;;;;;;;;
2024/01/24 11:32:11;;;;;;;14.40;3.22;;;;;;;;;;5895796;24;20461;-92
2024/01/24 11:35:34;;;;;;;;;;;;;;;;;;;;;
2024/01/24 11:52:51;;;;;;;;;;;;;;;;;;;;;
2024/01/24 11:59:32;;;;;;;18.08;3.28;;;;;;;;;;5753131;24;20071;-91
2024/01/24 12:02:34;;;;;;;20.63;4.40;;;;;;;;;;5756364;24;20028;-91
2024/01/24 22:09:32;;;;;;;;;;;;;;;;;;;;;
2024/01/24 22:12:27;;;;;;;15.02;3.03;;;;;;;;;;6153556;23;20028;-90
2024/01/24 22:15:23;;;;;;;13.48;3.55;;;;;;;;;;6153573;23;20051;-91
2024/01/24 22:18:14;;;;;;;;;;;;;;;;;;;;;
2024/01/24 22:21:16;;;;;;;15.05;2.83;;;;;;;;;;6212547;23;20024;-91
2024/01/24 22:23:55;;;;;;;;;;;;;;;;;;;;;
2024/01/24 22:51:19;;;;;;;23.30;4.25;;;;;;;;;;6067400;23;20092;-85
2024/01/24 22:57:58;;;;;;;;;;;;;;;;;;;;;
2024/01/24 23:01:28;;;;;;;19.67;3.30;;;;;;;;;;6024213;23;20166;-86
2024/01/24 23:28:24;;;;;;;18.42;3.15;;;;;;;;;;6077409;23;20022;-87
2024/01/24 23:31:28;;;;;;;;;;;;;;;;;;;;;
2024/01/24 23:34:15;;;;;;;19.83;4.13;;;;;;;;;;6174417;23;20072;-87
2024/01/24 23:47:18;;;;;;;22.45;3.70;;;;;;;;;;6044612;23;20026;-86
2024/01/24 23:50:27;;;;;;;20.98;3.17;;;;;;;;;;6032757;23;20113;-85
2024/01/24 23:53:18;;;;;;;;;;;;;;;;;;;;;
2024/01/24 23:55:53;;;;;;;22.45;3.60;;;;;;;;;;5991135;23;20084;-86
